Stefan Balasa

Recruteur en chef - Viitorul
23 Avr 2028
Dimanche
Processus

Personnalité

Adaptabilité (14) Ambition (6) Controverse (12) Loyauté (1) Pression (2) Professionnalisme (16) Sportivité (10) Tempérament (3)

Profil

Style d'entraînement Démocratique
Diplôme Continental C
Détermination 9
Gestion des joueurs 9
Motivation 9
Discipline 9
Satisfaction professionnelle
100%
Fatigue
0%
Rôle Recruteur en chef
Salaire 25.5K p/s
Contrat 14.03.2030

Performance

Comportement Bon
Efficacité de l'entraînement
31%
Développement des joueurs
15%
Prévention des blessures
40%
Mise en place tactique
15%

Événements récents

A participé à une réunion de recrutement 7j
A recommandé une cible de transfert 7j
A participé à une réunion de recrutement 14j
A recommandé une cible de transfert 14j
A participé à une réunion de recrutement 21j
A recommandé une cible de transfert 21j
A participé à une réunion de recrutement 28j
A recommandé une cible de transfert 28j

Suivi en cours

104
Joueur Club Statut Capacité Confiance Observé Dernière observation Dernier vote
Enzo González Defensores Actif 106 / 112 40% 1 31.12.2027 -
Germán Cervera Alvarado Actif 91 / 109 40% 1 31.12.2027 -
Yegor Kortsov Dinamo Brest Actif 116 / 111 40% 1 31.12.2027 -
Simone Rabbi Ravenna Actif 118 / 121 40% 1 17.08.2027 -
Will Swan Bradford City Actif 115 / 98 40% 3 20.07.2027 -
Tyreece Campbell Charlton Athletic Actif 111 / 119 40% 1 21.06.2027 -
Lorent Tolaj Plymouth Argyle Actif 116 / 123 40% 2 15.06.2027 -
Job Ochieng Real Sociedad Actif 117 / 111 40% 1 15.06.2027 -
George Brown Sheffield Wednesday Actif 105 / 112 40% 1 31.05.2027 -
Daniel Udoh Salford City Actif 109 / 111 40% 2 29.05.2027 -
Aaron Drinan Swindon Town Actif 105 / 101 40% 1 28.05.2027 -
Federico Di Francesco Catanzaro Actif 111 / 112 40% 1 27.05.2027 -
Patrick Cutrone Monza Actif 119 / 130 40% 1 25.05.2027 -
Sam Nombe Milton Keynes Dons Actif 96 / 100 40% 3 24.05.2027 -
Harry Cornick AFC Wimbledon Actif 90 / 97 40% 1 24.05.2027 -
Luca Moro Padova Actif 134 / 125 40% 1 23.05.2027 -
Callum Lang Preston Actif 117 / 124 40% 1 23.05.2027 -
Stephen Amankona Aduana Stars Actif 92 / 95 40% 1 19.05.2027 -
Fábio Tavares Burton Albion Actif 91 / 92 40% 2 13.05.2027 -
Abu Kamara Portsmouth Actif 115 / 124 40% 1 07.05.2027 -
Wandile Duba ASO Chlef Actif 110 / 101 40% 1 07.05.2027 -
Dale Taylor Blackpool Actif 108 / 122 40% 1 04.05.2027 -
Stephen Humphrys Bradford City Actif 125 / 108 40% 2 03.05.2027 -
John McAtee Leyton Orient Actif 121 / 104 40% 1 03.05.2027 -
Yeangel Montero Naxxar Lions Actif 101 / 94 40% 3 18.01.2027 -
Cristian Mihai Dinamo Bucharest Actif 112 / 106 62% 1 18.01.2027 Approuver
Ioannis Pittas CSKA Sofia Actif 132 / 124 40% 1 18.01.2027 -
Oleksandr Romanchuk Universitatea Craiova Actif 133 / 120 40% 1 04.01.2027 -
Thalente Mbatha Orlando Pirates Actif 122 / 121 40% 1 04.01.2027 -
David Miculescu FCSB Actif 127 / 115 40% 7 30.12.2026 -
Mustapha Sangaré Levski Actif 116 / 122 40% 1 30.12.2026 -
Tenton Yenne Baltika Actif 99 / 113 40% 1 27.12.2026 -
Reda Khadra Qarabag Actif 131 / 134 40% 3 26.12.2026 -
Mykola Haiduchyk Polissia Actif 117 / 107 40% 2 26.12.2026 -
Oleksii Hutsuliak Polissia Actif 131 / 131 40% 2 26.12.2026 -
Patrick Maswanganyi Orlando Pirates Actif 125 / 111 40% 1 25.12.2026 -
Deano Van Rooyen SuperSport United Actif 126 / 107 40% 1 25.12.2026 -
Erik Botheim Viking Actif 134 / 120 40% 3 23.12.2026 -
Salah Mohsen El Masry Actif 120 / 125 40% 2 19.12.2026 -
Matej Trusa DAC Dunajska Streda Actif 112 / 112 40% 2 18.12.2026 -
Dejan Joveljić Seattle Sounders Actif 121 / 134 40% 1 18.12.2026 -
Thabo Nodada Maritzburg United Actif 95 / 108 40% 1 18.12.2026 -
Egas Cacintura Akhmat Grozny Actif 123 / 119 40% 2 17.12.2026 -
Alexandru Cicâldău Universitatea Craiova Actif 112 / 122 40% 1 17.12.2026 -
Adu Ares Eibar Actif 117 / 110 40% 1 16.12.2026 -
Mohamed Brahimi CSKA Sofia Actif 115 / 115 40% 1 16.12.2026 -
Assad Al Hamlawi Universitatea Craiova Actif 126 / 126 40% 6 14.12.2026 -
Armstrong Oko-Flex Levski Actif 126 / 124 40% 8 14.12.2026 -
Berna CSKA 1948 Actif 123 / 122 40% 1 12.12.2026 -
Mohammed Kamara CFR Cluj Actif 110 / 119 40% 2 09.12.2026 -
Etiosa Ighodaro Kaizer Chiefs Actif 121 / 109 40% 3 09.12.2026 -
Mikhail Ignatov Sochi Actif 124 / 117 40% 1 09.12.2026 -
Thulani Mabaso Platinum Stars Actif 99 / 113 40% 1 09.12.2026 -
Ammar Ramadan DAC Dunajska Streda Actif 132 / 130 40% 1 07.12.2026 -
Peter Valjent FK Senica Actif 125 / 112 40% 3 03.12.2026 -
Alberto Soro Dinamo Bucharest Actif 130 / 115 40% 1 03.12.2026 -
Peter Itodo Metalist Actif 110 / 115 40% 1 29.11.2026 -
Mohamed Konaté Akhmat Grozny Actif 111 / 110 40% 2 25.11.2026 -
Diego Luna Real Salt Lake Actif 112 / 140 40% 1 25.11.2026 -
Paul Chiriches Pandurii Actif 110 / 108 40% 2 24.11.2026 -
André Vidigal Hearts of Oak Actif 96 / 111 40% 1 22.11.2026 -
Tadeo Allende Inter Miami CF Actif 135 / 117 40% 1 13.11.2026 -
Brayan Gil Baltika Actif 131 / 120 40% 1 11.11.2026 -
Juan Bezerra Zamalek Actif 114 / 120 40% 1 09.11.2026 -
Andrei Cordea CFR Cluj Actif 114 / 122 40% 1 09.11.2026 -
Radek Šiler Podbrezova Actif 109 / 120 40% 2 08.11.2026 -
Evidence Makgopa Orlando Pirates Actif 108 / 116 40% 2 05.11.2026 -
Themba Williams Ajax Cape Town Actif 108 / 108 40% 1 04.11.2026 -
Simon Elisor Universitatea Craiova Actif 120 / 112 40% 3 29.10.2026 -
Bradley Zwane SuperSport United Actif 108 / 125 40% 1 26.10.2026 -
Nduduzo Sibiya Golden Arrows Actif 104 / 115 40% 1 26.10.2026 -
Vegard Erlien Tromso Actif 115 / 132 40% 1 26.10.2026 -
Tio Cipot NK Maribor Actif 109 / 116 40% 1 25.10.2026 -
Marcelo Allende Mamelodi Sundowns Actif 119 / 121 40% 1 23.10.2026 -
Petar Stanić Ludogorets Actif 135 / 129 40% 1 23.10.2026 -
Matty Stevens AFC Wimbledon Actif 118 / 108 40% 1 21.10.2026 -
Marcelo Torres Gimnasia La Plata Actif 110 / 125 40% 1 21.10.2026 -
Jens Petter Hauge Bodo/Glimt Actif 154 / 142 40% 1 19.10.2026 -
Oswin Appollis Orlando Pirates Actif 105 / 118 40% 1 15.10.2026 -
Bongani Zungu Ajax Cape Town Actif 115 / 129 40% 1 15.10.2026 -
Ole-Didrik Blomberg Bodo/Glimt Actif 123 / 125 40% 1 13.10.2026 -
Edu Expósito Espanyol Actif 131 / 133 40% 1 13.10.2026 -
Yegor Golenkov Rostov Actif 116 / 116 40% 1 09.10.2026 -
Mandla Kekana Ajax Cape Town Actif 102 / 109 40% 1 07.10.2026 -
Dennis Gjengaar Valerenga Actif 110 / 124 40% 1 05.10.2026 -
Jay Stansfield Birmingham Actif 134 / 130 40% 1 05.10.2026 -
Mamoudou Karamoko Dinamo Bucharest Actif 117 / 119 40% 1 01.10.2026 -
Martin Sekulić Ural Actif 100 / 111 40% 1 29.09.2026 -
Franko Kovačević Ferencvaros Actif 114 / 113 40% 1 26.09.2026 -
Luka Jović CFR Cluj Actif 129 / 134 40% 1 23.09.2026 -
Daniel Karlsbakk Sarpsborg 08 Actif 111 / 135 40% 2 22.09.2026 -
Indrit Tuci Olimpija Ljubljana Actif 115 / 109 40% 1 22.09.2026 -
Marcos Cuenca Zaragoza Actif 95 / 112 40% 1 19.09.2026 -
Slobodan Tedić Akron Actif 104 / 109 40% 1 15.09.2026 -
Örvar Eggertsson Stjarnan Actif 96 / 107 40% 1 14.09.2026 -
Enes Ünal Getafe Actif 127 / 129 40% 1 13.09.2026 -
Albin Andersson Falkenberg Actif 111 / 99 40% 1 12.09.2026 -
Dragos Puscas Pandurii Actif 110 / 113 40% 1 10.09.2026 -
Danilo Boza Dinamo Bucharest Actif 130 / 123 40% 1 10.09.2026 -
Ramiro Ruiz Rodríguez Atlético Tucumán Actif 110 / 116 40% 1 07.09.2026 -
Bogdan Hagi Astra Actif 115 / 112 40% 1 31.08.2026 -
Nico Elvedi Leeds United Actif 148 / 142 40% 1 21.08.2026 -
Yanela Mbuthuma Orlando Pirates Actif 97 / 110 40% 1 10.08.2026 -
Santiago González Sporting Cristal Actif 134 / 125 40% 1 01.08.2026 -